createdAt,value
2022-12-06T00:01:36.736Z,101591.72
2022-12-06T00:04:07.936Z,101600.06
2022-12-06T00:06:41.621Z,101593.03
2022-12-06T00:09:16.766Z,101582.81
2022-12-06T00:11:45.590Z,101590.50
2022-12-06T00:14:16.179Z,101588.19
2022-12-06T00:16:45.116Z,101585.66
2022-12-06T00:19:16.268Z,101579.38
2022-12-06T00:21:45.204Z,101587.44
2022-12-06T00:24:16.018Z,101577.91
2022-12-06T00:26:47.479Z,101584.72
2022-12-06T00:29:19.848Z,101582.53
2022-12-06T00:31:49.330Z,101588.34
2022-12-06T00:34:18.287Z,101575.25
2022-12-06T00:36:47.841Z,101577.06
2022-12-06T00:39:18.813Z,101578.59
2022-12-06T00:41:47.598Z,101572.31
2022-12-06T00:44:17.713Z,101579.03
2022-12-06T00:46:46.402Z,101574.75
2022-12-06T00:49:15.162Z,101581.69
2022-12-06T00:51:43.825Z,101579.44
2022-12-06T00:54:16.169Z,101577.16
2022-12-06T00:56:44.875Z,101569.31
2022-12-06T00:59:13.610Z,101576.13
2022-12-06T01:01:43.746Z,101582.84
2022-12-06T01:04:12.568Z,101575.75
2022-12-06T01:06:41.294Z,101580.28
2022-12-06T01:09:11.952Z,101582.19
2022-12-06T01:11:40.832Z,101585.19
2022-12-06T01:14:09.607Z,101578.56
2022-12-06T01:16:38.255Z,101579.81
2022-12-06T01:19:08.587Z,101574.50
2022-12-06T01:21:37.242Z,101578.69
2022-12-06T01:24:06.301Z,101573.34
2022-12-06T01:26:36.622Z,101579.06
2022-12-06T01:29:06.129Z,101576.59
2022-12-06T01:31:39.089Z,101575.63
2022-12-06T01:34:15.142Z,101573.09
2022-12-06T01:36:44.051Z,101576.13
2022-12-06T01:39:13.080Z,101578.41
2022-12-06T01:41:41.947Z,101578.78
2022-12-06T01:44:39.801Z,101586.03
2022-12-06T01:47:11.904Z,101585.09
2022-12-06T01:49:45.176Z,101579.03
2022-12-06T01:52:15.326Z,101573.47
2022-12-06T01:54:44.157Z,101580.19
2022-12-06T01:57:15.137Z,101577.81
2022-12-06T01:59:44.399Z,101578.19
2022-12-06T02:02:13.413Z,101581.78
2022-12-06T02:04:45.218Z,101574.69
2022-12-06T02:07:14.398Z,101572.53
2022-12-06T02:09:44.273Z,101566.94
2022-12-06T02:12:15.770Z,101567.59
2022-12-06T02:14:48.909Z,101572.06
2022-12-06T02:17:30.823Z,101565.81
2022-12-06T02:20:13.991Z,101563.91
2022-12-06T02:23:22.801Z,101565.34
2022-12-06T02:26:22.833Z,101562.56
2022-12-06T02:29:21.173Z,101567.59
2022-12-06T02:31:56.835Z,101561.47
2022-12-06T02:34:32.833Z,101552.56
2022-12-06T02:37:07.701Z,101570.44
2022-12-06T02:39:41.653Z,101560.31
2022-12-06T02:42:15.986Z,101562.56
2022-12-06T02:44:50.307Z,101560.31
2022-12-06T02:47:22.876Z,101560.50
2022-12-06T02:49:54.760Z,101557.13
2022-12-06T02:52:26.656Z,101552.84
2022-12-06T02:54:58.205Z,101545.06
2022-12-06T02:57:36.902Z,101549.25
2022-12-06T03:00:20.699Z,101551.50
2022-12-06T03:02:50.960Z,101541.69
2022-12-06T03:05:29.008Z,101545.47
2022-12-06T03:08:00.055Z,101550.28
2022-12-06T03:10:41.976Z,101545.84
2022-12-06T03:13:17.800Z,101553.78
2022-12-06T03:15:55.071Z,101547.53
2022-12-06T03:18:33.390Z,101544.03
2022-12-06T03:21:06.908Z,101546.31
2022-12-06T03:23:40.937Z,101539.31
2022-12-06T03:26:14.720Z,101544.31
2022-12-06T03:28:46.872Z,101537.59
2022-12-06T03:31:16.262Z,101542.81
2022-12-06T03:33:56.155Z,101543.19
2022-12-06T03:36:27.563Z,101542.06
2022-12-06T03:38:59.635Z,101540.41
2022-12-06T03:41:47.145Z,101539.94
2022-12-06T03:44:15.651Z,101542.97
2022-12-06T03:46:50.833Z,101537.59
2022-12-06T03:49:27.802Z,101536.66
2022-12-06T03:51:56.501Z,101535.13
2022-12-06T03:54:24.985Z,101536.56
2022-12-06T03:56:53.421Z,101532.38
2022-12-06T03:59:21.764Z,101540.31
2022-12-06T04:01:50.222Z,101536.66
2022-12-06T04:04:20.140Z,101536.06
2022-12-06T04:06:48.573Z,101542.09
2022-12-06T04:09:34.268Z,101529.28
2022-12-06T04:12:02.680Z,101530.19
2022-12-06T04:14:39.320Z,101538.59
2022-12-06T04:17:26.796Z,101544.78
2022-12-06T04:19:56.491Z,101528.38
2022-12-06T04:22:42.467Z,101525.16
2022-12-06T04:25:11.038Z,101529.50
2022-12-06T04:27:56.771Z,101528.28
2022-12-06T04:30:42.668Z,101528.19
2022-12-06T04:33:28.375Z,101526.91
2022-12-06T04:36:17.032Z,101534.28
2022-12-06T04:38:45.803Z,101524.47
2022-12-06T04:41:36.395Z,101531.09
2022-12-06T04:44:04.792Z,101527.78
2022-12-06T04:46:34.058Z,101533.47
2022-12-06T04:49:02.434Z,101531.41
2022-12-06T04:51:32.181Z,101531.56
2022-12-06T04:54:00.568Z,101533.41
2022-12-06T04:56:28.952Z,101536.81
2022-12-06T04:58:57.300Z,101527.75
2022-12-06T05:01:25.674Z,101537.13
2022-12-06T05:03:54.521Z,101534.06
2022-12-06T05:06:23.143Z,101532.16
2022-12-06T05:08:53.197Z,101533.94
2022-12-06T05:11:21.613Z,101533.84
2022-12-06T05:13:49.978Z,101538.69
2022-12-06T05:16:19.376Z,101531.47
2022-12-06T05:18:47.736Z,101532.09
2022-12-06T05:21:19.271Z,101536.00
2022-12-06T05:23:48.072Z,101538.41
2022-12-06T05:26:20.623Z,101522.13
2022-12-06T05:28:49.811Z,101531.41
2022-12-06T05:31:19.787Z,101533.84
2022-12-06T05:33:49.045Z,101526.78
2022-12-06T05:36:21.859Z,101525.38
2022-12-06T05:38:51.958Z,101528.66
2022-12-06T05:41:23.318Z,101529.91
2022-12-06T05:43:52.226Z,101524.00
2022-12-06T05:46:20.721Z,101526.16
2022-12-06T05:48:49.200Z,101519.81
2022-12-06T05:51:17.583Z,101519.28
2022-12-06T05:53:45.936Z,101520.78
2022-12-06T05:56:14.704Z,101520.19
2022-12-06T06:01:14.532Z,101530.97
2022-12-06T06:03:47.538Z,101525.63
2022-12-06T06:06:16.836Z,101535.25
2022-12-06T06:08:45.190Z,101535.84
2022-12-06T06:11:13.596Z,101532.31
2022-12-06T06:13:42.183Z,101525.19
2022-12-06T06:16:10.685Z,101524.34
2022-12-06T06:18:40.451Z,101526.81
2022-12-06T06:21:08.807Z,101524.47
2022-12-06T06:23:37.164Z,101523.41
2022-12-06T06:26:09.020Z,101521.50
2022-12-06T06:28:37.387Z,101521.91
2022-12-06T06:31:07.151Z,101525.22
2022-12-06T06:33:36.302Z,101532.56
2022-12-06T06:36:07.220Z,101532.50
2022-12-06T06:38:35.584Z,101528.56
2022-12-06T06:41:04.610Z,101528.66
2022-12-06T06:43:33.462Z,101531.09
2022-12-06T06:46:04.350Z,101526.47
2022-12-06T06:48:36.714Z,101528.06
2022-12-06T06:51:08.481Z,101521.44
2022-12-06T06:53:37.849Z,101525.03
2022-12-06T06:56:07.112Z,101528.81
2022-12-06T06:58:35.983Z,101524.34
2022-12-06T07:01:06.717Z,101535.69
2022-12-06T07:03:36.293Z,101518.06
2022-12-06T07:06:10.303Z,101522.28
2022-12-06T07:08:40.366Z,101523.44
2022-12-06T07:11:09.557Z,101528.72
2022-12-06T07:13:39.751Z,101523.31
2022-12-06T07:16:13.611Z,101519.91
2022-12-06T07:18:42.853Z,101512.72
2022-12-06T07:21:15.705Z,101521.06
2022-12-06T07:23:44.983Z,101518.72
2022-12-06T07:26:16.002Z,101523.94
2022-12-06T07:28:47.322Z,101516.47
2022-12-06T07:31:19.824Z,101519.97
2022-12-06T07:33:49.646Z,101521.28
2022-12-06T07:36:22.745Z,101523.91
2022-12-06T07:38:55.175Z,101524.28
2022-12-06T07:41:42.741Z,101523.84
2022-12-06T07:44:29.934Z,101525.25
2022-12-06T07:46:59.209Z,101522.09
2022-12-06T07:49:27.852Z,101521.41
2022-12-06T07:51:58.547Z,101526.06
2022-12-06T07:54:27.345Z,101531.94
2022-12-06T07:56:57.299Z,101534.22
2022-12-06T07:59:26.539Z,101529.84
2022-12-06T08:01:55.528Z,101532.78
2022-12-06T08:04:24.479Z,101536.06
2022-12-06T08:06:53.900Z,101536.00
2022-12-06T08:09:24.660Z,101540.03
2022-12-06T08:11:53.298Z,101539.19
2022-12-06T08:14:23.355Z,101545.75
2022-12-06T08:16:52.224Z,101546.53
2022-12-06T08:19:21.132Z,101551.25
2022-12-06T08:21:49.900Z,101550.72
2022-12-06T08:24:18.711Z,101548.75
2022-12-06T08:26:48.935Z,101556.81
2022-12-06T08:29:17.840Z,101557.94
2022-12-06T08:31:46.609Z,101552.88
2022-12-06T08:34:16.424Z,101557.56
2022-12-06T08:36:45.514Z,101560.88
2022-12-06T08:39:14.665Z,101559.84
2022-12-06T08:41:59.280Z,101559.50
2022-12-06T08:44:31.006Z,101561.44
2022-12-06T08:47:01.172Z,101567.13
2022-12-06T08:49:31.653Z,101569.72
2022-12-06T08:52:00.809Z,101558.09
2022-12-06T08:54:30.030Z,101562.81
2022-12-06T08:56:58.796Z,101562.44
2022-12-06T08:59:28.925Z,101563.88
2022-12-06T09:01:57.606Z,101563.66
2022-12-06T09:04:27.460Z,101568.59
2022-12-06T09:06:56.159Z,101571.72
2022-12-06T09:09:24.946Z,101574.06
2022-12-06T09:11:53.695Z,101572.81
2022-12-06T09:14:22.841Z,101576.09
2022-12-06T09:16:53.313Z,101577.19
2022-12-06T09:19:22.036Z,101578.56
2022-12-06T09:21:50.805Z,101582.06
2022-12-06T09:24:20.675Z,101581.59
2022-12-06T09:26:49.864Z,101575.19
2022-12-06T09:29:20.091Z,101577.81
2022-12-06T09:31:49.104Z,101584.91
2022-12-06T09:34:19.540Z,101586.34
2022-12-06T09:36:52.804Z,101577.66
2022-12-06T09:39:28.578Z,101581.91
2022-12-06T09:42:21.907Z,101581.66
2022-12-06T09:45:27.114Z,101584.56
2022-12-06T09:48:13.466Z,101593.50
2022-12-06T09:50:58.496Z,101591.88
2022-12-06T09:53:40.435Z,101587.41
2022-12-06T09:56:15.634Z,101591.16
2022-12-06T09:59:00.338Z,101587.78
2022-12-06T10:01:42.697Z,101585.03
2022-12-06T10:04:39.431Z,101590.38
2022-12-06T10:07:14.964Z,101581.59
2022-12-06T10:09:53.114Z,101586.56
2022-12-06T10:12:33.281Z,101579.88
2022-12-06T10:15:25.237Z,101573.09
2022-12-06T10:18:08.696Z,101570.50
2022-12-06T10:20:45.656Z,101570.41
2022-12-06T10:23:38.576Z,101563.72
2022-12-06T10:26:17.084Z,101563.22
2022-12-06T10:28:48.352Z,101560.19
2022-12-06T10:31:27.986Z,101561.00
2022-12-06T10:33:59.392Z,101561.19
2022-12-06T10:36:43.575Z,101551.44
2022-12-06T10:39:22.925Z,101553.16
2022-12-06T10:42:00.034Z,101557.72
2022-12-06T10:44:34.531Z,101555.72
2022-12-06T10:47:08.194Z,101556.75
2022-12-06T10:49:53.626Z,101550.53
2022-12-06T10:52:32.901Z,101545.97
2022-12-06T10:55:20.553Z,101540.22
2022-12-06T10:57:56.312Z,101543.09
2022-12-06T11:00:26.831Z,101549.50
2022-12-06T11:03:04.742Z,101540.41
2022-12-06T11:05:39.663Z,101535.59
2022-12-06T11:08:13.957Z,101537.56
2022-12-06T11:10:46.845Z,101536.97
2022-12-06T11:13:23.321Z,101538.94
2022-12-06T11:15:59.307Z,101536.19
2022-12-06T11:18:30.654Z,101535.25
2022-12-06T11:21:06.780Z,101532.94
2022-12-06T11:23:46.580Z,101525.97
2022-12-06T11:26:24.995Z,101534.19
2022-12-06T11:29:05.084Z,101533.63
2022-12-06T11:31:39.375Z,101533.16
2022-12-06T11:34:19.099Z,101523.56
2022-12-06T11:36:54.000Z,101527.06
2022-12-06T11:39:25.662Z,101519.63
2022-12-06T11:41:59.870Z,101523.59
2022-12-06T11:44:36.411Z,101524.66
2022-12-06T11:47:06.639Z,101524.09
2022-12-06T11:49:40.204Z,101528.66
2022-12-06T11:52:14.013Z,101524.91
2022-12-06T11:54:49.380Z,101520.81
2022-12-06T11:57:24.138Z,101526.31
2022-12-06T12:00:18.472Z,101524.84
2022-12-06T12:02:49.092Z,101521.63
2022-12-06T12:05:23.298Z,101535.25
2022-12-06T12:07:56.894Z,101531.38
2022-12-06T12:10:36.745Z,101536.09
2022-12-06T12:13:39.705Z,101527.19
2022-12-06T12:16:17.463Z,101531.00
2022-12-06T12:18:54.987Z,101520.38
2022-12-06T12:21:40.150Z,101525.97
2022-12-06T12:27:48.575Z,101525.09
2022-12-06T12:30:40.504Z,101515.50
2022-12-06T12:33:23.396Z,101516.25
2022-12-06T12:36:11.231Z,101515.38
2022-12-06T12:38:43.922Z,101512.00
2022-12-06T12:41:32.673Z,101513.50
2022-12-06T12:44:36.969Z,101510.09
2022-12-06T12:46:58.097Z,101512.69
2022-12-06T12:49:33.939Z,101512.34
2022-12-06T12:52:22.273Z,101508.34
2022-12-06T12:55:02.157Z,101501.63
2022-12-06T12:57:32.313Z,101508.50
2022-12-06T13:00:01.101Z,101499.44
2022-12-06T13:02:32.041Z,101497.94
2022-12-06T13:05:31.371Z,101498.47
2022-12-06T13:07:57.584Z,101502.91
2022-12-06T13:10:33.283Z,101499.84
2022-12-06T13:13:06.397Z,101495.81
2022-12-06T13:15:39.039Z,101497.41
2022-12-06T13:18:14.725Z,101500.19
2022-12-06T13:20:43.895Z,101500.84
2022-12-06T13:23:19.294Z,101501.78
2022-12-06T13:25:54.072Z,101497.59
2022-12-06T13:28:30.550Z,101491.63
2022-12-06T13:31:07.445Z,101489.47
2022-12-06T13:33:43.494Z,101492.84
2022-12-06T13:36:16.448Z,101485.94
2022-12-06T13:38:45.022Z,101488.50
2022-12-06T13:41:15.373Z,101490.13
2022-12-06T13:43:54.123Z,101488.66
2022-12-06T13:46:29.479Z,101487.00
2022-12-06T13:48:59.441Z,101482.09
2022-12-06T13:51:50.489Z,101482.28
2022-12-06T13:54:36.904Z,101478.03
2022-12-06T13:57:32.346Z,101474.31
2022-12-06T14:00:02.364Z,101485.56
2022-12-06T14:02:52.102Z,101480.56
2022-12-06T14:06:07.486Z,101485.16
2022-12-06T14:08:43.037Z,101492.69
2022-12-06T14:11:25.190Z,101488.81
2022-12-06T14:14:04.026Z,101495.53
2022-12-06T14:16:40.044Z,101489.00
2022-12-06T14:19:18.819Z,101482.09
2022-12-06T14:21:56.204Z,101485.72
2022-12-06T14:24:35.087Z,101482.50
2022-12-06T14:27:12.879Z,101477.19
2022-12-06T14:29:42.992Z,101477.34
2022-12-06T14:32:13.128Z,101484.53
2022-12-06T14:34:41.497Z,101475.13
2022-12-06T14:37:21.543Z,101481.69
2022-12-06T14:39:54.033Z,101480.25
2022-12-06T14:42:40.655Z,101477.28
2022-12-06T14:45:16.947Z,101477.69
2022-12-06T14:47:47.062Z,101477.19
2022-12-06T14:50:32.454Z,101480.09
2022-12-06T14:53:06.463Z,101478.78
2022-12-06T14:55:37.463Z,101478.53
2022-12-06T14:58:17.335Z,101472.91
2022-12-06T15:00:54.195Z,101476.63
2022-12-06T15:03:32.035Z,101475.03
2022-12-06T15:06:20.746Z,101476.09
2022-12-06T15:08:55.171Z,101469.09
2022-12-06T15:11:49.181Z,101474.66
2022-12-06T15:14:22.064Z,101474.72
2022-12-06T15:17:03.256Z,101471.56
2022-12-06T15:19:35.885Z,101475.25
2022-12-06T15:22:05.278Z,101479.09
2022-12-06T15:24:33.781Z,101478.84
2022-12-06T15:27:02.456Z,101483.09
2022-12-06T15:29:30.762Z,101479.75
2022-12-06T15:31:59.496Z,101480.84
2022-12-06T15:34:30.898Z,101477.19
2022-12-06T15:37:37.063Z,101468.28
2022-12-06T15:39:50.324Z,101464.94
2022-12-06T15:42:21.148Z,101468.78
2022-12-06T15:44:52.723Z,101472.56
2022-12-06T15:47:21.484Z,101466.88
2022-12-06T15:49:51.827Z,101463.91
2022-12-06T15:52:24.370Z,101465.59
2022-12-06T15:54:52.941Z,101466.88
2022-12-06T15:57:21.393Z,101467.06
2022-12-06T15:59:49.811Z,101457.50
2022-12-06T16:02:19.793Z,101470.66
2022-12-06T16:04:50.984Z,101473.63
2022-12-06T16:07:19.695Z,101478.31
2022-12-06T16:09:50.021Z,101471.56
2022-12-06T16:12:18.676Z,101473.84
2022-12-06T16:14:47.118Z,101472.16
2022-12-06T16:17:15.467Z,101472.00
2022-12-06T16:20:01.282Z,101475.59
2022-12-06T16:22:47.185Z,101474.94
2022-12-06T16:25:16.913Z,101481.53
2022-12-06T16:27:45.275Z,101471.56
2022-12-06T16:30:14.721Z,101468.59
2022-12-06T16:32:43.079Z,101472.59
2022-12-06T16:35:11.405Z,101472.81
2022-12-06T16:37:40.556Z,101466.22
2022-12-06T16:40:21.065Z,101463.50
2022-12-06T16:42:49.487Z,101463.28
2022-12-06T16:45:18.531Z,101452.88
2022-12-06T16:47:47.568Z,101457.84
2022-12-06T16:50:24.574Z,101467.44
2022-12-06T16:52:54.091Z,101457.50
2022-12-06T16:55:23.847Z,101452.00
2022-12-06T16:57:52.623Z,101448.66
2022-12-06T17:00:22.676Z,101448.06
2022-12-06T17:02:51.375Z,101450.81
2022-12-06T17:05:23.105Z,101435.31
2022-12-06T17:07:52.170Z,101442.50
2022-12-06T17:10:22.906Z,101435.31
2022-12-06T17:12:51.448Z,101442.13
2022-12-06T17:15:22.294Z,101442.75
2022-12-06T17:17:50.846Z,101442.16
2022-12-06T17:20:20.459Z,101438.31
2022-12-06T17:22:49.110Z,101444.44
2022-12-06T17:25:18.125Z,101440.00
2022-12-06T17:27:47.917Z,101440.22
2022-12-06T17:30:18.732Z,101428.78
2022-12-06T17:32:48.753Z,101430.47
2022-12-06T17:35:17.367Z,101440.66
2022-12-06T17:37:45.736Z,101435.53
2022-12-06T17:40:15.626Z,101435.94
2022-12-06T17:43:01.034Z,101438.53
2022-12-06T17:45:31.032Z,101430.19
2022-12-06T17:48:01.278Z,101431.94
2022-12-06T17:50:29.642Z,101424.31
2022-12-06T17:52:58.007Z,101431.22
2022-12-06T17:55:26.451Z,101433.03
2022-12-06T17:57:54.844Z,101426.44
2022-12-06T18:00:24.032Z,101426.78
2022-12-06T18:02:53.930Z,101427.88
2022-12-06T18:05:22.444Z,101426.47
2022-12-06T18:07:52.183Z,101423.63
2022-12-06T18:10:20.530Z,101428.94
2022-12-06T18:12:48.875Z,101420.56
2022-12-06T18:15:34.695Z,101418.56
2022-12-06T18:18:04.710Z,101419.78
2022-12-06T18:20:33.031Z,101414.53
2022-12-06T18:23:01.520Z,101427.47
2022-12-06T18:25:29.900Z,101425.50
2022-12-06T18:27:58.376Z,101426.31
2022-12-06T18:30:26.685Z,101416.09
2022-12-06T18:32:55.033Z,101413.41
2022-12-06T18:35:24.729Z,101410.47
2022-12-06T18:37:53.108Z,101407.09
2022-12-06T18:40:21.469Z,101411.88
2022-12-06T18:42:51.042Z,101410.31
2022-12-06T18:45:19.374Z,101412.00
2022-12-06T18:47:47.755Z,101411.34
2022-12-06T18:50:16.246Z,101412.03
2022-12-06T18:52:45.948Z,101414.25
2022-12-06T18:55:14.297Z,101412.53
2022-12-06T18:57:42.697Z,101411.94
2022-12-06T19:00:14.250Z,101413.22
2022-12-06T19:02:42.644Z,101417.69
2022-12-06T19:05:11.286Z,101415.94
2022-12-06T19:07:39.731Z,101411.16
2022-12-06T19:10:10.827Z,101412.69
2022-12-06T19:12:39.221Z,101408.53
2022-12-06T19:15:09.332Z,101408.63
2022-12-06T19:17:37.743Z,101414.34
2022-12-06T19:20:07.642Z,101403.16
2022-12-06T19:22:36.121Z,101410.81
2022-12-06T19:25:04.646Z,101407.22
2022-12-06T19:27:34.650Z,101413.16
2022-12-06T19:30:03.307Z,101407.38
2022-12-06T19:32:32.768Z,101407.03
2022-12-06T19:35:08.111Z,101409.66
2022-12-06T19:37:36.977Z,101417.94
2022-12-06T19:40:06.890Z,101410.28
2022-12-06T19:43:06.293Z,101412.34
2022-12-06T19:45:34.622Z,101416.16
2022-12-06T19:48:02.986Z,101408.69
2022-12-06T19:50:31.310Z,101409.72
2022-12-06T19:52:59.686Z,101406.81
2022-12-06T19:55:28.041Z,101402.19
2022-12-06T19:57:57.795Z,101391.47
2022-12-06T20:00:26.252Z,101385.72
2022-12-06T20:02:54.950Z,101384.88
2022-12-06T20:05:23.588Z,101388.13
2022-12-06T20:07:52.022Z,101386.78
2022-12-06T20:10:20.394Z,101394.66
2022-12-06T20:12:48.787Z,101391.09
2022-12-06T20:15:18.685Z,101394.06
2022-12-06T20:17:47.048Z,101385.28
2022-12-06T20:20:15.436Z,101387.59
2022-12-06T20:22:43.892Z,101388.75
2022-12-06T20:25:12.246Z,101380.25
2022-12-06T20:27:57.155Z,101387.94
2022-12-06T20:30:26.859Z,101390.19
2022-12-06T20:32:55.238Z,101384.47
2022-12-06T20:35:24.449Z,101391.59
2022-12-06T20:37:52.828Z,101384.41
2022-12-06T20:40:22.103Z,101384.06
2022-12-06T20:42:52.854Z,101383.38
2022-12-06T20:45:21.199Z,101380.19
2022-12-06T20:47:54.488Z,101388.13
2022-12-06T20:50:23.347Z,101381.75
2022-12-06T20:52:51.847Z,101389.31
2022-12-06T20:55:20.168Z,101387.22
2022-12-06T20:57:48.544Z,101387.69
2022-12-06T21:00:18.265Z,101382.41
2022-12-06T21:02:46.885Z,101387.03
2022-12-06T21:05:18.885Z,101372.09
2022-12-06T21:07:47.473Z,101369.72
2022-12-06T21:10:16.052Z,101378.31
2022-12-06T21:12:44.407Z,101367.78
2022-12-06T21:15:12.923Z,101373.41
2022-12-06T21:17:41.336Z,101367.66
2022-12-06T21:20:10.554Z,101364.84
2022-12-06T21:22:40.287Z,101362.81
2022-12-06T21:25:10.103Z,101362.28
2022-12-06T21:27:38.769Z,101364.50
2022-12-06T21:30:08.647Z,101367.13
2022-12-06T21:32:37.293Z,101360.09
2022-12-06T21:35:06.468Z,101364.22
2022-12-06T21:37:35.091Z,101365.44
2022-12-06T21:40:05.748Z,101366.25
2022-12-06T21:42:34.157Z,101373.50
2022-12-06T21:45:02.562Z,101377.56
2022-12-06T21:47:30.954Z,101369.16
2022-12-06T21:49:59.858Z,101372.53
2022-12-06T21:52:28.512Z,101373.59
2022-12-06T21:54:57.007Z,101365.97
2022-12-06T21:57:26.813Z,101367.44
2022-12-06T21:59:55.190Z,101368.66
2022-12-06T22:02:23.610Z,101374.84
2022-12-06T22:04:52.002Z,101374.19
2022-12-06T22:07:20.390Z,101368.44
2022-12-06T22:09:48.802Z,101368.34
2022-12-06T22:12:17.255Z,101366.22
2022-12-06T22:14:48.865Z,101373.56
2022-12-06T22:17:17.501Z,101370.31
2022-12-06T22:19:46.155Z,101382.59
2022-12-06T22:22:14.810Z,101375.41
2022-12-06T22:24:43.430Z,101381.78
2022-12-06T22:27:12.104Z,101373.66
2022-12-06T22:29:40.798Z,101379.09
2022-12-06T22:32:10.748Z,101372.63
2022-12-06T22:34:39.359Z,101378.59
2022-12-06T22:37:07.976Z,101375.34
2022-12-06T22:39:36.600Z,101373.59
2022-12-06T22:42:05.399Z,101372.44
2022-12-06T22:44:34.057Z,101371.94
2022-12-06T22:47:02.746Z,101369.44
2022-12-06T22:49:32.818Z,101376.06
2022-12-06T22:52:01.443Z,101373.34
2022-12-06T22:54:30.088Z,101377.50
2022-12-06T22:56:58.717Z,101370.13
2022-12-06T22:59:27.362Z,101374.22
2022-12-06T23:01:55.993Z,101369.25
2022-12-06T23:04:24.639Z,101372.84
2022-12-06T23:06:54.588Z,101364.47
2022-12-06T23:09:23.255Z,101360.75
2022-12-06T23:11:51.917Z,101366.31
2022-12-06T23:14:20.521Z,101359.25
2022-12-06T23:16:49.295Z,101355.69
2022-12-06T23:19:18.071Z,101355.06
2022-12-06T23:21:46.838Z,101358.09
2022-12-06T23:24:17.086Z,101354.44
2022-12-06T23:26:50.658Z,101362.50
2022-12-06T23:29:21.868Z,101358.47
2022-12-06T23:31:50.586Z,101357.28
2022-12-06T23:34:22.476Z,101353.59
2022-12-06T23:36:51.223Z,101350.22
2022-12-06T23:39:20.984Z,101346.72
2022-12-06T23:41:49.607Z,101346.81
2022-12-06T23:44:17.992Z,101335.41
2022-12-06T23:46:46.446Z,101337.53
2022-12-06T23:49:18.898Z,101334.56
2022-12-06T23:51:48.667Z,101341.09
2022-12-06T23:54:20.082Z,101345.13
2022-12-06T23:56:48.826Z,101344.00
2022-12-06T23:59:18.788Z,101345.38
